createdAt,value
2022-12-07T00:04:25.764Z,99.87
2022-12-07T00:09:27.203Z,100.00
2022-12-07T00:14:28.663Z,99.94
2022-12-07T00:19:30.091Z,100.00
2022-12-07T00:24:31.561Z,99.81
2022-12-07T00:29:32.988Z,99.80
2022-12-07T00:34:34.458Z,99.78
2022-12-07T00:39:35.879Z,99.80
2022-12-07T00:44:37.552Z,99.77
2022-12-07T00:49:39.130Z,99.75
2022-12-07T00:54:40.972Z,99.90
2022-12-07T00:59:42.397Z,99.37
2022-12-07T01:04:43.824Z,99.74
2022-12-07T01:09:45.286Z,99.62
2022-12-07T01:14:46.925Z,99.95
2022-12-07T01:19:48.510Z,99.77
2022-12-07T01:24:50.156Z,99.55
2022-12-07T01:29:52.027Z,99.58
2022-12-07T01:34:53.648Z,99.44
2022-12-07T01:39:55.091Z,99.73
2022-12-07T01:45:15.365Z,99.52
2022-12-07T01:50:17.162Z,99.68
2022-12-07T01:55:19.325Z,99.73
2022-12-07T02:00:20.894Z,99.89
2022-12-07T02:05:23.763Z,99.60
2022-12-07T02:10:28.892Z,99.82
2022-12-07T02:15:42.682Z,99.58
2022-12-07T02:20:58.921Z,99.87
2022-12-07T02:26:33.277Z,99.57
2022-12-07T02:31:36.602Z,99.70
2022-12-07T02:36:45.420Z,99.58
2022-12-07T02:41:58.452Z,99.77
2022-12-07T02:47:08.075Z,99.86
2022-12-07T02:52:09.665Z,99.58
2022-12-07T02:57:42.917Z,99.80
2022-12-07T03:03:01.760Z,99.75
2022-12-07T03:08:09.061Z,99.75
2022-12-07T03:13:23.270Z,99.73
2022-12-07T03:18:29.925Z,99.49
2022-12-07T03:23:34.860Z,99.61
2022-12-07T03:28:40.545Z,99.66
2022-12-07T03:34:00.534Z,99.55
2022-12-07T03:39:14.404Z,99.65
2022-12-07T03:44:16.980Z,99.59
2022-12-07T03:49:31.285Z,99.30
2022-12-07T03:54:48.209Z,99.62
2022-12-07T03:59:51.237Z,99.41
2022-12-07T04:04:53.252Z,99.56
2022-12-07T04:09:55.802Z,99.31
2022-12-07T04:14:57.228Z,99.53
2022-12-07T04:19:58.784Z,98.96
2022-12-07T04:25:00.346Z,99.50
2022-12-07T04:30:02.254Z,99.21
2022-12-07T04:35:04.605Z,99.30
2022-12-07T04:40:09.588Z,98.94
2022-12-07T04:45:11.307Z,99.22
2022-12-07T04:50:12.756Z,99.20
2022-12-07T04:55:14.189Z,98.78
2022-12-07T05:00:15.741Z,99.10
2022-12-07T05:05:17.158Z,98.66
2022-12-07T05:10:18.671Z,98.77
2022-12-07T05:15:20.127Z,99.16
2022-12-07T05:20:21.832Z,99.17
2022-12-07T05:25:23.251Z,98.94
2022-12-07T05:30:26.337Z,98.74
2022-12-07T05:35:27.806Z,99.22
2022-12-07T05:40:29.332Z,98.95
2022-12-07T05:45:30.911Z,98.84
2022-12-07T05:50:32.451Z,98.88
2022-12-07T05:55:36.876Z,99.22
2022-12-07T06:00:38.326Z,99.08
2022-12-07T06:05:39.768Z,98.79
2022-12-07T06:10:42.457Z,99.24
2022-12-07T06:15:43.920Z,99.15
2022-12-07T06:20:45.446Z,99.15
2022-12-07T06:25:47.129Z,99.20
2022-12-07T06:30:48.655Z,99.16
2022-12-07T06:35:50.160Z,99.18
2022-12-07T06:40:51.696Z,99.00
2022-12-07T06:45:53.213Z,99.01
2022-12-07T06:50:55.546Z,99.04
2022-12-07T06:55:57.129Z,99.02
2022-12-07T07:01:02.506Z,99.25
2022-12-07T07:06:04.229Z,98.97
2022-12-07T07:11:07.383Z,99.00
2022-12-07T07:16:09.512Z,99.09
2022-12-07T07:21:11.227Z,98.64
2022-12-07T07:26:12.700Z,98.60
2022-12-07T07:31:14.341Z,98.40
2022-12-07T07:36:15.875Z,98.39
2022-12-07T07:41:17.339Z,98.50
2022-12-07T07:46:19.006Z,98.26
2022-12-07T07:51:20.490Z,98.56
2022-12-07T07:56:21.931Z,98.39
2022-12-07T08:01:23.475Z,98.24
2022-12-07T08:06:30.525Z,98.25
2022-12-07T08:11:33.624Z,98.35
2022-12-07T08:16:38.268Z,98.36
2022-12-07T08:21:51.419Z,98.58
2022-12-07T08:27:00.816Z,98.51
2022-12-07T08:32:09.698Z,98.71
2022-12-07T08:37:21.606Z,98.62
2022-12-07T08:43:02.028Z,98.75
2022-12-07T08:48:52.670Z,98.61
2022-12-07T08:54:18.709Z,98.90
2022-12-07T08:59:42.692Z,98.74
2022-12-07T09:05:00.315Z,98.61
2022-12-07T09:10:22.502Z,98.58
2022-12-07T09:15:56.752Z,98.76
2022-12-07T09:20:58.649Z,98.81
2022-12-07T09:26:10.765Z,98.65
2022-12-07T09:31:24.674Z,98.57
2022-12-07T09:36:34.914Z,98.60
2022-12-07T09:41:44.034Z,98.62
2022-12-07T09:47:03.647Z,98.46
2022-12-07T09:52:39.497Z,98.51
2022-12-07T09:57:54.920Z,98.05
2022-12-07T10:03:06.888Z,97.69
2022-12-07T10:08:12.553Z,97.31
2022-12-07T10:13:37.430Z,97.01
2022-12-07T10:18:43.136Z,96.78
2022-12-07T10:24:05.842Z,96.54
2022-12-07T10:29:21.657Z,95.90
2022-12-07T10:34:27.892Z,95.59
2022-12-07T10:39:29.702Z,94.99
2022-12-07T10:44:34.229Z,94.21
2022-12-07T10:49:46.085Z,93.53
2022-12-07T10:55:27.580Z,92.92
2022-12-07T11:00:43.786Z,92.56
2022-12-07T11:06:07.248Z,92.31
2022-12-07T11:11:21.748Z,92.03
2022-12-07T11:16:53.877Z,91.77
2022-12-07T11:22:05.217Z,91.65
2022-12-07T11:27:21.269Z,91.41
2022-12-07T11:32:37.834Z,91.27
2022-12-07T11:42:49.599Z,90.83
2022-12-07T11:48:02.790Z,90.75
2022-12-07T11:53:09.903Z,90.74
2022-12-07T11:58:32.108Z,90.64
2022-12-07T12:03:39.397Z,90.36
2022-12-07T12:20:04.165Z,89.82
2022-12-07T12:25:11.683Z,89.76
2022-12-07T12:30:35.075Z,89.52
2022-12-07T12:35:37.995Z,89.23
2022-12-07T12:40:43.163Z,88.93
2022-12-07T12:45:48.645Z,88.84
2022-12-07T12:51:10.283Z,89.02
2022-12-07T12:56:38.847Z,88.89
2022-12-07T13:01:42.990Z,89.06
2022-12-07T13:06:44.797Z,88.87
2022-12-07T13:11:47.139Z,89.10
2022-12-07T13:16:48.703Z,88.98
2022-12-07T13:21:50.237Z,88.89
2022-12-07T13:26:56.903Z,88.76
2022-12-07T13:32:01.846Z,88.76
2022-12-07T13:37:16.807Z,88.62
2022-12-07T13:42:31.763Z,88.49
2022-12-07T13:47:37.329Z,88.20
2022-12-07T13:52:44.752Z,88.20
2022-12-07T13:57:50.566Z,88.19
2022-12-07T14:03:23.173Z,88.37
2022-12-07T14:08:25.649Z,88.48
2022-12-07T14:13:36.301Z,88.74
2022-12-07T14:18:40.927Z,88.75
2022-12-07T14:23:43.214Z,88.89
2022-12-07T14:28:44.791Z,88.61
2022-12-07T14:33:46.398Z,88.67
2022-12-07T14:38:48.263Z,89.10
2022-12-07T14:44:21.250Z,89.50
2022-12-07T14:54:34.050Z,89.70
2022-12-07T14:59:39.133Z,90.74
2022-12-07T15:04:42.404Z,90.98
2022-12-07T15:09:43.972Z,91.39
2022-12-07T15:14:45.410Z,91.59
2022-12-07T15:19:46.910Z,92.23
2022-12-07T15:24:48.404Z,92.09
2022-12-07T15:29:49.919Z,92.44
2022-12-07T15:34:51.361Z,92.78
2022-12-07T15:39:52.868Z,93.37
2022-12-07T15:45:06.694Z,93.11
2022-12-07T15:50:12.871Z,93.44
2022-12-07T15:55:14.357Z,93.63
2022-12-07T16:00:16.262Z,93.97
2022-12-07T16:05:17.764Z,93.96
2022-12-07T16:10:19.199Z,94.22
2022-12-07T16:15:24.455Z,94.16
2022-12-07T16:20:26.472Z,94.26
2022-12-07T16:25:27.948Z,93.90
2022-12-07T16:30:29.450Z,94.32
2022-12-07T16:35:30.888Z,94.32
2022-12-07T16:40:32.527Z,94.37
2022-12-07T16:45:34.005Z,94.47
2022-12-07T16:50:35.726Z,94.34
2022-12-07T16:55:41.551Z,95.00
2022-12-07T17:00:51.334Z,95.12
2022-12-07T17:05:56.207Z,95.23
2022-12-07T17:10:57.697Z,95.19
2022-12-07T17:16:04.772Z,95.12
2022-12-07T17:21:08.212Z,95.57
2022-12-07T17:26:14.154Z,95.64
2022-12-07T17:31:18.880Z,95.34
2022-12-07T17:36:27.848Z,95.66
2022-12-07T17:41:50.192Z,95.43
2022-12-07T17:47:02.174Z,95.70
2022-12-07T17:52:25.238Z,95.63
2022-12-07T17:57:26.714Z,95.82
2022-12-07T18:02:28.182Z,95.50
2022-12-07T18:07:30.040Z,95.60
2022-12-07T18:12:31.528Z,95.14
2022-12-07T18:17:33.163Z,95.49
2022-12-07T18:22:36.414Z,95.33
2022-12-07T18:27:37.937Z,95.16
2022-12-07T18:32:39.383Z,95.34
2022-12-07T18:37:41.195Z,95.37
2022-12-07T18:42:42.895Z,95.57
2022-12-07T18:47:44.333Z,95.32
2022-12-07T18:52:45.884Z,95.89
2022-12-07T18:57:47.305Z,95.66
2022-12-07T19:02:53.320Z,95.54
2022-12-07T19:07:55.106Z,95.79
2022-12-07T19:13:01.266Z,95.97
2022-12-07T19:22:36.466Z,95.92
2022-12-07T19:27:38.081Z,96.06
2022-12-07T19:32:39.551Z,96.24
2022-12-07T19:37:41.054Z,96.22
2022-12-07T19:42:42.570Z,96.54
2022-12-07T19:47:44.060Z,96.74
2022-12-07T19:52:45.509Z,96.85
2022-12-07T19:57:47.079Z,96.61
2022-12-07T20:02:51.742Z,96.79
2022-12-07T20:07:53.436Z,96.96
2022-12-07T20:13:13.323Z,97.11
2022-12-07T20:18:14.749Z,97.21
2022-12-07T20:23:16.215Z,97.23
2022-12-07T20:28:17.677Z,97.32
2022-12-07T20:33:20.463Z,97.19
2022-12-07T20:38:21.968Z,97.72
2022-12-07T20:43:23.414Z,97.49
2022-12-07T20:48:24.964Z,97.83
2022-12-07T20:53:26.627Z,97.66
2022-12-07T20:58:28.746Z,97.67
2022-12-07T21:03:30.441Z,97.75
2022-12-07T21:08:31.927Z,97.88
2022-12-07T21:13:33.465Z,97.64
2022-12-07T21:18:35.124Z,97.98
2022-12-07T21:23:37.501Z,97.97
2022-12-07T21:28:39.302Z,98.24
2022-12-07T21:33:41.571Z,97.91
2022-12-07T21:38:43.297Z,98.01
2022-12-07T21:43:45.807Z,97.96
2022-12-07T21:48:59.602Z,98.19
2022-12-07T21:54:02.731Z,98.43
2022-12-07T21:59:11.434Z,98.06
2022-12-07T22:04:23.109Z,97.84
2022-12-07T22:09:24.888Z,98.01
2022-12-07T22:14:45.130Z,98.06
2022-12-07T22:19:46.651Z,97.96
2022-12-07T22:24:48.420Z,98.12
2022-12-07T22:29:49.949Z,98.01
2022-12-07T22:34:51.468Z,98.33
2022-12-07T22:39:53.041Z,98.28
2022-12-07T22:44:54.603Z,98.36
2022-12-07T22:49:56.693Z,98.45
2022-12-07T22:54:58.249Z,98.23
2022-12-07T22:59:59.911Z,98.30
2022-12-07T23:05:01.822Z,98.04
2022-12-07T23:10:05.403Z,98.46
2022-12-07T23:15:07.281Z,98.36
2022-12-07T23:20:09.405Z,98.68
2022-12-07T23:25:10.909Z,98.41
2022-12-07T23:30:12.506Z,98.16
2022-12-07T23:35:13.970Z,98.58
2022-12-07T23:40:15.572Z,98.54
2022-12-07T23:45:17.232Z,98.36
2022-12-07T23:50:18.848Z,98.63
2022-12-07T23:55:21.470Z,98.52
